Terminal Aerodrome Forecast
Issued by NWS

Home | Current Version | Previous Version | Text Only | Print | Product List | Glossary On
Versions: 1 2 3 4 5 6 7 8 9 10 11 12 13 14 15
000
FTUS43 KAPX 041416 AAA
TAFAPN
TAF AMD
KAPN 041416Z 0414/0512 28004KT P6SM BKN027 OVC035
      TEMPO 0414/0416 6SM -SHRA OVC050
     FM041600 30008KT P6SM BKN060
     FM041900 32008KT P6SM FEW060
     FM050100 31004KT P6SM SCT250=

USA.gov is the U.S. government's official web portal to all federal, state and local government web resources and services.